createdAt,value
2022-12-08T00:01:11.807Z,7.20
2022-12-08T00:03:39.044Z,7.20
2022-12-08T00:06:26.068Z,7.20
2022-12-08T00:09:11.456Z,7.20
2022-12-08T00:11:39.674Z,7.10
2022-12-08T00:14:06.603Z,7.10
2022-12-08T00:16:33.629Z,7.20
2022-12-08T00:19:00.530Z,7.20
2022-12-08T00:21:28.493Z,7.10
2022-12-08T00:23:56.699Z,7.10
2022-12-08T00:26:23.587Z,7.10
2022-12-08T00:28:50.483Z,7.10
2022-12-08T00:31:17.578Z,7.10
2022-12-08T00:33:44.599Z,7.10
2022-12-08T00:36:13.775Z,7.10
2022-12-08T00:38:41.924Z,7.10
2022-12-08T00:41:16.828Z,7.10
2022-12-08T00:43:43.901Z,7.10
2022-12-08T00:46:12.062Z,7.10
2022-12-08T00:48:39.427Z,7.10
2022-12-08T00:51:06.565Z,7.10
2022-12-08T00:53:33.422Z,7.20
2022-12-08T00:56:00.327Z,7.20
2022-12-08T00:58:27.203Z,7.10
2022-12-08T01:00:54.292Z,7.20
2022-12-08T01:03:21.285Z,7.20
2022-12-08T01:05:48.173Z,7.20
2022-12-08T01:08:15.169Z,7.20
2022-12-08T01:10:42.145Z,7.20
2022-12-08T01:13:09.060Z,7.20
2022-12-08T01:15:37.267Z,7.20
2022-12-08T01:18:04.233Z,7.20
2022-12-08T01:20:31.144Z,7.20
2022-12-08T01:22:58.027Z,7.20
2022-12-08T01:25:24.959Z,7.20
2022-12-08T01:27:53.801Z,7.10
2022-12-08T01:30:21.754Z,7.20
2022-12-08T01:32:48.636Z,7.10
2022-12-08T01:35:15.577Z,7.10
2022-12-08T01:37:42.473Z,7.10
2022-12-08T01:40:09.773Z,7.10
2022-12-08T01:42:38.457Z,7.10
2022-12-08T01:45:13.492Z,7.10
2022-12-08T01:47:44.699Z,7.10
2022-12-08T01:50:14.990Z,7.10
2022-12-08T01:52:47.433Z,7.10
2022-12-08T01:55:22.819Z,7.20
2022-12-08T01:57:54.949Z,7.10
2022-12-08T02:00:23.036Z,7.10
2022-12-08T02:02:55.311Z,7.10
2022-12-08T02:05:25.761Z,7.10
2022-12-08T02:07:53.550Z,7.10
2022-12-08T02:10:22.606Z,7.10
2022-12-08T02:12:53.079Z,7.10
2022-12-08T02:15:23.113Z,7.10
2022-12-08T02:18:27.780Z,7.10
2022-12-08T02:21:14.909Z,7.10
2022-12-08T02:23:53.394Z,7.00
2022-12-08T02:26:44.670Z,7.00
2022-12-08T02:29:53.620Z,7.00
2022-12-08T02:32:58.241Z,6.90
2022-12-08T02:35:43.613Z,6.90
2022-12-08T02:38:31.342Z,6.90
2022-12-08T02:41:25.536Z,6.80
2022-12-08T02:44:11.124Z,6.80
2022-12-08T02:46:45.240Z,6.80
2022-12-08T02:49:15.277Z,6.80
2022-12-08T02:51:42.443Z,6.80
2022-12-08T02:54:09.890Z,6.80
2022-12-08T02:57:12.429Z,6.70
2022-12-08T03:00:05.398Z,6.80
2022-12-08T03:02:51.096Z,6.80
2022-12-08T03:05:20.982Z,6.80
2022-12-08T03:07:56.445Z,6.80
2022-12-08T03:11:04.408Z,6.80
2022-12-08T03:13:40.661Z,6.80
2022-12-08T03:16:10.115Z,6.80
2022-12-08T03:18:44.152Z,6.80
2022-12-08T03:21:12.594Z,6.80
2022-12-08T03:23:40.177Z,6.70
2022-12-08T03:26:18.573Z,6.70
2022-12-08T03:28:46.205Z,6.70
2022-12-08T03:31:15.910Z,6.70
2022-12-08T03:33:47.114Z,6.70
2022-12-08T03:36:15.371Z,6.70
2022-12-08T03:38:45.477Z,6.70
2022-12-08T03:41:19.372Z,6.70
2022-12-08T03:43:51.890Z,6.70
2022-12-08T03:48:46.642Z,6.70
2022-12-08T03:51:13.844Z,6.70
2022-12-08T03:53:41.402Z,6.70
2022-12-08T03:56:22.381Z,6.70
2022-12-08T03:58:49.254Z,6.70
2022-12-08T04:01:16.123Z,6.70
2022-12-08T04:03:43.003Z,6.70
2022-12-08T04:06:10.292Z,6.70
2022-12-08T04:08:37.153Z,6.70
2022-12-08T04:11:06.326Z,6.70
2022-12-08T04:13:37.872Z,6.70
2022-12-08T04:16:05.588Z,6.70
2022-12-08T04:18:33.813Z,6.70
2022-12-08T04:21:01.354Z,6.70
2022-12-08T04:23:28.263Z,6.70
2022-12-08T04:25:55.165Z,6.70
2022-12-08T04:28:22.083Z,6.70
2022-12-08T04:30:50.046Z,6.70
2022-12-08T04:33:17.322Z,6.70
2022-12-08T04:35:44.316Z,6.70
2022-12-08T04:38:11.462Z,6.70
2022-12-08T04:40:38.989Z,6.70
2022-12-08T04:43:06.355Z,6.70
2022-12-08T04:45:33.852Z,6.70
2022-12-08T04:48:01.451Z,6.70
2022-12-08T04:50:28.554Z,6.70
2022-12-08T04:52:55.428Z,6.70
2022-12-08T04:55:22.413Z,6.70
2022-12-08T04:57:49.340Z,6.70
2022-12-08T05:00:17.141Z,6.70
2022-12-08T05:02:44.182Z,6.70
2022-12-08T05:05:11.119Z,6.70
2022-12-08T05:07:38.124Z,6.70
2022-12-08T05:10:06.076Z,6.70
2022-12-08T05:12:33.687Z,6.70
2022-12-08T05:15:00.587Z,6.70
2022-12-08T05:17:27.464Z,6.70
2022-12-08T05:19:54.337Z,6.70
2022-12-08T05:22:21.224Z,6.70
2022-12-08T05:24:48.123Z,6.70
2022-12-08T05:27:15.352Z,6.60
2022-12-08T05:29:42.740Z,6.60
2022-12-08T05:32:09.671Z,6.60
2022-12-08T05:34:36.593Z,6.60
2022-12-08T05:37:03.496Z,6.50
2022-12-08T05:39:30.347Z,6.50
2022-12-08T05:41:57.237Z,6.50
2022-12-08T05:44:24.133Z,6.50
2022-12-08T05:46:51.035Z,6.50
2022-12-08T05:49:18.327Z,6.50
2022-12-08T05:51:45.256Z,6.40
2022-12-08T05:54:12.120Z,6.40
2022-12-08T05:56:38.980Z,6.40
2022-12-08T05:59:07.333Z,6.40
2022-12-08T06:01:34.330Z,6.40
2022-12-08T06:04:03.028Z,6.40
2022-12-08T06:06:31.376Z,6.40
2022-12-08T06:08:58.273Z,6.30
2022-12-08T06:11:29.879Z,6.30
2022-12-08T06:13:57.763Z,6.30
2022-12-08T06:16:26.453Z,6.30
2022-12-08T06:18:53.701Z,6.30
2022-12-08T06:21:21.059Z,6.30
2022-12-08T06:23:52.482Z,6.20
2022-12-08T06:26:20.300Z,6.30
2022-12-08T06:28:47.750Z,6.20
2022-12-08T06:31:21.196Z,6.30
2022-12-08T06:33:48.871Z,6.30
2022-12-08T06:36:17.508Z,6.20
2022-12-08T06:38:45.035Z,6.20
2022-12-08T06:41:13.005Z,6.30
2022-12-08T06:43:40.150Z,6.30
2022-12-08T06:46:09.668Z,6.30
2022-12-08T06:48:36.623Z,6.30
2022-12-08T06:51:18.524Z,6.30
2022-12-08T06:53:46.333Z,6.30
2022-12-08T06:56:14.536Z,6.30
2022-12-08T06:58:41.507Z,6.30
2022-12-08T07:01:10.445Z,6.40
2022-12-08T07:03:39.036Z,6.40
2022-12-08T07:06:06.857Z,6.40
2022-12-08T07:08:34.777Z,6.40
2022-12-08T07:11:10.662Z,6.40
2022-12-08T07:13:37.669Z,6.40
2022-12-08T07:16:12.185Z,6.40
2022-12-08T07:18:39.471Z,6.40
2022-12-08T07:21:09.331Z,6.40
2022-12-08T07:23:36.706Z,6.30
2022-12-08T07:26:05.784Z,6.30
2022-12-08T07:28:34.377Z,6.30
2022-12-08T07:31:01.967Z,6.20
2022-12-08T07:33:29.145Z,6.20
2022-12-08T07:35:57.079Z,6.20
2022-12-08T07:38:24.540Z,6.20
2022-12-08T07:40:52.734Z,6.20
2022-12-08T07:43:20.080Z,6.20
2022-12-08T07:45:47.420Z,6.20
2022-12-08T07:48:14.416Z,6.20
2022-12-08T07:50:41.415Z,6.20
2022-12-08T07:53:09.172Z,6.20
2022-12-08T07:55:40.732Z,6.20
2022-12-08T07:58:08.080Z,6.20
2022-12-08T08:00:35.023Z,6.20
2022-12-08T08:03:02.828Z,6.30
2022-12-08T08:05:29.886Z,6.30
2022-12-08T08:07:56.844Z,6.30
2022-12-08T08:10:23.855Z,6.30
2022-12-08T08:12:50.708Z,6.30
2022-12-08T08:15:19.356Z,6.30
2022-12-08T08:17:50.598Z,6.30
2022-12-08T08:20:18.505Z,6.30
2022-12-08T08:22:49.600Z,6.30
2022-12-08T08:25:17.279Z,6.30
2022-12-08T08:27:44.186Z,6.30
2022-12-08T08:30:18.341Z,6.30
2022-12-08T08:32:47.039Z,6.30
2022-12-08T08:35:14.216Z,6.30
2022-12-08T08:37:45.590Z,6.30
2022-12-08T08:40:15.509Z,6.30
2022-12-08T08:42:42.413Z,6.30
2022-12-08T08:45:09.612Z,6.30
2022-12-08T08:47:36.562Z,6.40
2022-12-08T08:50:04.616Z,6.30
2022-12-08T08:52:31.747Z,6.40
2022-12-08T08:54:58.618Z,6.30
2022-12-08T08:57:26.224Z,6.30
2022-12-08T08:59:53.858Z,6.40
2022-12-08T09:02:21.308Z,6.40
2022-12-08T09:04:48.521Z,6.30
2022-12-08T09:07:16.148Z,6.40
2022-12-08T09:09:43.172Z,6.40
2022-12-08T09:12:11.179Z,6.40
2022-12-08T09:14:38.149Z,6.40
2022-12-08T09:17:05.554Z,6.40
2022-12-08T09:19:32.691Z,6.30
2022-12-08T09:21:59.565Z,6.30
2022-12-08T09:24:26.728Z,6.40
2022-12-08T09:26:53.696Z,6.30
2022-12-08T09:29:20.580Z,6.30
2022-12-08T09:31:47.603Z,6.40
2022-12-08T09:34:14.758Z,6.30
2022-12-08T09:36:41.644Z,6.40
2022-12-08T09:39:08.877Z,6.40
2022-12-08T09:41:50.239Z,6.40
2022-12-08T09:44:35.587Z,6.40
2022-12-08T09:47:05.573Z,6.40
2022-12-08T09:49:59.376Z,6.40
2022-12-08T09:52:30.826Z,6.40
2022-12-08T09:55:02.679Z,6.40
2022-12-08T09:57:32.069Z,6.40
2022-12-08T10:00:05.203Z,6.50
2022-12-08T10:02:32.432Z,6.40
2022-12-08T10:05:00.028Z,6.40
2022-12-08T10:08:14.448Z,6.40
2022-12-08T10:10:57.006Z,6.40
2022-12-08T10:13:45.065Z,6.40
2022-12-08T10:16:29.732Z,6.50
2022-12-08T10:19:11.806Z,6.50
2022-12-08T10:21:40.996Z,6.50
2022-12-08T10:24:21.800Z,6.50
2022-12-08T10:26:49.788Z,6.50
2022-12-08T10:29:16.844Z,6.50
2022-12-08T10:31:43.989Z,6.50
2022-12-08T10:34:24.305Z,6.50
2022-12-08T10:36:59.159Z,6.50
2022-12-08T10:39:38.057Z,6.50
2022-12-08T10:42:14.347Z,6.50
2022-12-08T10:45:04.458Z,6.50
2022-12-08T10:47:37.105Z,6.50
2022-12-08T10:50:29.299Z,6.50
2022-12-08T10:53:10.105Z,6.50
2022-12-08T10:56:02.569Z,6.60
2022-12-08T10:58:29.622Z,6.60
2022-12-08T11:01:14.559Z,6.60
2022-12-08T11:03:51.980Z,6.60
2022-12-08T11:06:23.709Z,6.70
2022-12-08T11:08:52.665Z,6.60
2022-12-08T11:11:27.576Z,6.60
2022-12-08T11:13:56.402Z,6.70
2022-12-08T11:16:23.714Z,6.70
2022-12-08T11:18:57.908Z,6.70
2022-12-08T11:21:36.547Z,6.70
2022-12-08T11:24:26.120Z,6.60
2022-12-08T11:27:04.700Z,6.60
2022-12-08T11:29:33.944Z,6.60
2022-12-08T11:32:12.790Z,6.70
2022-12-08T11:34:46.758Z,6.70
2022-12-08T11:37:34.422Z,6.70
2022-12-08T11:40:07.325Z,6.70
2022-12-08T11:42:56.399Z,6.70
2022-12-08T11:45:28.221Z,6.80
2022-12-08T11:48:05.921Z,6.70
2022-12-08T11:51:06.251Z,6.80
2022-12-08T11:53:44.575Z,6.70
2022-12-08T11:56:20.311Z,6.80
2022-12-08T11:59:25.350Z,6.80
2022-12-08T12:01:52.543Z,6.80
2022-12-08T12:04:19.448Z,6.80
2022-12-08T12:07:16.212Z,6.90
2022-12-08T12:09:56.325Z,6.90
2022-12-08T12:12:41.472Z,6.90
2022-12-08T12:15:29.535Z,6.90
2022-12-08T12:18:16.286Z,6.90
2022-12-08T12:20:55.262Z,7.00
2022-12-08T12:23:43.313Z,6.90
2022-12-08T12:26:21.623Z,6.90
2022-12-08T12:29:19.419Z,7.00
2022-12-08T12:31:54.885Z,7.00
2022-12-08T12:34:25.335Z,7.00
2022-12-08T12:37:06.380Z,7.00
2022-12-08T12:39:56.174Z,7.00
2022-12-08T12:42:40.157Z,7.10
2022-12-08T12:45:21.975Z,7.00
2022-12-08T12:47:56.330Z,7.00
2022-12-08T12:50:33.207Z,6.90
2022-12-08T12:53:16.455Z,7.00
2022-12-08T12:55:46.263Z,7.00
2022-12-08T12:58:28.123Z,7.00
2022-12-08T13:01:13.473Z,7.00
2022-12-08T13:03:49.967Z,7.00
2022-12-08T13:06:32.555Z,7.00
2022-12-08T13:09:00.470Z,7.00
2022-12-08T13:11:27.487Z,7.00
2022-12-08T13:14:05.702Z,7.00
2022-12-08T13:16:38.269Z,7.00
2022-12-08T13:19:11.806Z,7.00
2022-12-08T13:21:39.819Z,6.90
2022-12-08T13:24:27.906Z,6.90
2022-12-08T13:27:03.741Z,6.90
2022-12-08T13:29:32.027Z,6.90
2022-12-08T13:32:03.952Z,6.90
2022-12-08T13:34:52.200Z,6.90
2022-12-08T13:37:54.600Z,7.00
2022-12-08T13:40:25.711Z,7.00
2022-12-08T13:43:20.128Z,7.00
2022-12-08T13:46:52.565Z,7.00
2022-12-08T13:53:48.993Z,7.00
2022-12-08T13:56:05.512Z,7.00
2022-12-08T13:57:34.376Z,7.00
2022-12-08T14:00:05.618Z,7.00
2022-12-08T14:02:40.848Z,7.00
2022-12-08T14:05:29.806Z,6.90
2022-12-08T14:08:00.352Z,6.90
2022-12-08T14:10:30.544Z,6.90
2022-12-08T14:13:06.410Z,6.90
2022-12-08T14:15:37.573Z,6.90
2022-12-08T14:18:04.979Z,6.90
2022-12-08T14:20:51.783Z,6.90
2022-12-08T14:23:21.300Z,6.90
2022-12-08T14:25:48.799Z,7.00
2022-12-08T14:28:16.517Z,7.00
2022-12-08T14:30:43.550Z,6.90
2022-12-08T14:33:19.153Z,6.90
2022-12-08T14:35:52.253Z,6.90
2022-12-08T14:38:20.859Z,6.90
2022-12-08T14:40:49.936Z,6.90
2022-12-08T14:43:20.895Z,6.90
2022-12-08T14:45:50.811Z,6.90
2022-12-08T14:48:40.881Z,6.90
2022-12-08T14:51:14.626Z,6.90
2022-12-08T14:54:07.619Z,6.90
2022-12-08T14:56:39.247Z,6.90
2022-12-08T14:59:11.833Z,6.90
2022-12-08T15:01:39.853Z,6.90
2022-12-08T15:04:19.216Z,6.90
2022-12-08T15:07:04.667Z,6.90
2022-12-08T15:09:31.522Z,6.90
2022-12-08T15:12:26.735Z,6.90
2022-12-08T15:15:14.068Z,6.80
2022-12-08T15:17:42.016Z,6.80
2022-12-08T15:20:39.443Z,6.80
2022-12-08T15:23:18.379Z,6.80
2022-12-08T15:25:45.237Z,6.80
2022-12-08T15:28:14.323Z,6.90
2022-12-08T15:30:41.230Z,6.80
2022-12-08T15:33:08.128Z,6.80
2022-12-08T15:35:40.507Z,6.80
2022-12-08T15:38:12.526Z,6.80
2022-12-08T15:40:39.386Z,6.70
2022-12-08T15:43:06.280Z,6.80
2022-12-08T15:45:33.191Z,6.80
2022-12-08T15:48:00.784Z,6.70
2022-12-08T15:50:27.783Z,6.70
2022-12-08T15:52:54.652Z,6.80
2022-12-08T15:55:22.376Z,6.80
2022-12-08T16:00:58.231Z,6.80
2022-12-08T16:07:04.708Z,6.80
2022-12-08T16:09:19.279Z,6.80
2022-12-08T16:12:07.815Z,6.80
2022-12-08T16:17:23.543Z,6.80
2022-12-08T16:19:50.512Z,6.80
2022-12-08T16:25:20.967Z,6.80
2022-12-08T16:28:05.540Z,6.80
2022-12-08T16:30:39.256Z,6.80
2022-12-08T16:33:06.466Z,6.80
2022-12-08T16:35:33.376Z,6.80
2022-12-08T16:38:00.238Z,6.80
2022-12-08T16:40:27.194Z,6.80
2022-12-08T16:42:57.335Z,6.80
2022-12-08T16:45:27.202Z,6.80
2022-12-08T16:48:03.249Z,6.80
2022-12-08T16:50:34.208Z,6.80
2022-12-08T16:53:04.735Z,6.80
2022-12-08T16:55:32.167Z,6.80
2022-12-08T16:57:59.109Z,6.80
2022-12-08T17:00:27.779Z,6.80
2022-12-08T17:02:55.602Z,6.80
2022-12-08T17:05:24.671Z,6.80
2022-12-08T17:07:55.799Z,6.80
2022-12-08T17:10:26.279Z,6.80
2022-12-08T17:12:53.339Z,6.90
2022-12-08T17:15:24.354Z,6.80
2022-12-08T17:17:51.527Z,6.80
2022-12-08T17:20:27.017Z,6.80
2022-12-08T17:22:55.502Z,6.80
2022-12-08T17:25:22.387Z,6.80
2022-12-08T17:27:49.284Z,6.80
2022-12-08T17:30:17.814Z,6.80
2022-12-08T17:32:45.539Z,6.80
2022-12-08T17:35:13.459Z,6.80
2022-12-08T17:37:40.604Z,6.80
2022-12-08T17:40:08.323Z,6.80
2022-12-08T17:42:35.433Z,6.80
2022-12-08T17:45:02.462Z,6.80
2022-12-08T17:47:29.565Z,6.90
2022-12-08T17:49:56.493Z,6.90
2022-12-08T17:52:23.442Z,6.90
2022-12-08T17:54:50.426Z,6.80
2022-12-08T17:57:17.344Z,6.90
2022-12-08T17:59:44.262Z,6.90
2022-12-08T18:02:15.195Z,6.80
2022-12-08T18:04:42.113Z,6.80
2022-12-08T18:07:09.046Z,6.80
2022-12-08T18:09:35.979Z,6.80
2022-12-08T18:12:03.106Z,6.80
2022-12-08T18:14:30.034Z,6.80
2022-12-08T18:16:56.996Z,6.80
2022-12-08T18:19:24.115Z,6.70
2022-12-08T18:21:51.048Z,6.80
2022-12-08T18:24:22.301Z,6.80
2022-12-08T18:26:50.714Z,6.80
2022-12-08T18:29:18.008Z,6.80
2022-12-08T18:31:44.948Z,6.80
2022-12-08T18:34:11.883Z,6.80
2022-12-08T18:36:38.787Z,6.80
2022-12-08T18:39:10.414Z,6.80
2022-12-08T18:41:37.962Z,6.80
2022-12-08T18:44:04.974Z,6.70
2022-12-08T18:46:31.931Z,6.80
2022-12-08T18:48:59.560Z,6.70
2022-12-08T18:51:26.512Z,6.70
2022-12-08T18:53:53.798Z,6.70
2022-12-08T18:56:32.043Z,6.70
2022-12-08T18:59:03.907Z,6.70
2022-12-08T19:01:33.070Z,6.70
2022-12-08T19:04:27.293Z,6.70
2022-12-08T19:06:48.881Z,6.60
2022-12-08T19:09:16.018Z,6.60
2022-12-08T19:11:43.411Z,6.70
2022-12-08T19:14:11.247Z,6.70
2022-12-08T19:16:38.489Z,6.70
2022-12-08T19:19:05.572Z,6.70
2022-12-08T19:21:32.717Z,6.70
2022-12-08T19:24:00.177Z,6.70
2022-12-08T19:26:28.631Z,6.70
2022-12-08T19:28:56.016Z,6.70
2022-12-08T19:31:22.964Z,6.70
2022-12-08T19:33:49.998Z,6.70
2022-12-08T19:36:19.423Z,6.70
2022-12-08T19:39:05.247Z,6.70
2022-12-08T19:41:51.017Z,6.80
2022-12-08T19:44:45.972Z,6.70
2022-12-08T19:47:13.246Z,6.70
2022-12-08T19:49:40.223Z,6.70
2022-12-08T19:52:07.566Z,6.70
2022-12-08T19:54:34.559Z,6.70
2022-12-08T19:57:02.257Z,6.70
2022-12-08T19:59:30.366Z,6.70
2022-12-08T20:01:58.586Z,6.80
2022-12-08T20:04:27.152Z,6.70
2022-12-08T20:06:56.319Z,6.70
2022-12-08T20:09:24.125Z,6.70
2022-12-08T20:11:54.660Z,6.70
2022-12-08T20:14:22.798Z,6.60
2022-12-08T20:16:50.589Z,6.60
2022-12-08T20:19:17.728Z,6.60
2022-12-08T20:21:44.620Z,6.60
2022-12-08T20:24:11.519Z,6.60
2022-12-08T20:26:38.439Z,6.60
2022-12-08T20:29:05.419Z,6.60
2022-12-08T20:31:33.712Z,6.60
2022-12-08T20:34:01.123Z,6.60
2022-12-08T20:36:28.435Z,6.60
2022-12-08T20:38:55.853Z,6.50
2022-12-08T20:41:26.021Z,6.50
2022-12-08T20:43:53.302Z,6.50
2022-12-08T20:46:21.217Z,6.50
2022-12-08T20:48:48.767Z,6.60
2022-12-08T20:51:18.173Z,6.50
2022-12-08T20:53:45.396Z,6.50
2022-12-08T20:56:20.015Z,6.50
2022-12-08T20:58:47.126Z,6.50
2022-12-08T21:01:16.291Z,6.50
2022-12-08T21:03:44.922Z,6.50
2022-12-08T21:06:13.512Z,6.50
2022-12-08T21:08:41.757Z,6.50
2022-12-08T21:11:09.466Z,6.50
2022-12-08T21:13:39.811Z,6.50
2022-12-08T21:16:09.401Z,6.40
2022-12-08T21:18:39.655Z,6.40
2022-12-08T21:21:13.026Z,6.40
2022-12-08T21:23:41.188Z,6.40
2022-12-08T21:26:17.545Z,6.40
2022-12-08T21:28:45.308Z,6.40
2022-12-08T21:31:15.556Z,6.30
2022-12-08T21:33:43.161Z,6.30
2022-12-08T21:36:16.490Z,6.40
2022-12-08T21:38:44.257Z,6.40
2022-12-08T21:41:14.610Z,6.40
2022-12-08T21:43:43.300Z,6.40
2022-12-08T21:46:17.340Z,6.40
2022-12-08T21:48:44.470Z,6.40
2022-12-08T21:51:11.618Z,6.40
2022-12-08T21:53:38.641Z,6.40
2022-12-08T21:56:09.207Z,6.40
2022-12-08T21:58:36.327Z,6.50
2022-12-08T22:01:07.822Z,6.40
2022-12-08T22:03:35.159Z,6.40
2022-12-08T22:06:11.173Z,6.40
2022-12-08T22:08:38.468Z,6.40
2022-12-08T22:11:06.804Z,6.40
2022-12-08T22:13:41.642Z,6.40
2022-12-08T22:16:11.650Z,6.40
2022-12-08T22:18:38.772Z,6.40
2022-12-08T22:21:18.871Z,6.40
2022-12-08T22:23:46.039Z,6.40
2022-12-08T22:26:14.003Z,6.40
2022-12-08T22:28:42.882Z,6.40
2022-12-08T22:31:18.535Z,6.40
2022-12-08T22:33:45.669Z,6.40
2022-12-08T22:36:24.707Z,6.50
2022-12-08T22:38:53.380Z,6.50
2022-12-08T22:41:21.486Z,6.50
2022-12-08T22:43:49.877Z,6.50
2022-12-08T22:46:25.654Z,6.50
2022-12-08T22:48:53.315Z,6.50
2022-12-08T22:51:21.097Z,6.50
2022-12-08T22:53:48.583Z,6.50
2022-12-08T22:56:16.613Z,6.50
2022-12-08T22:58:44.475Z,6.50
2022-12-08T23:01:26.151Z,6.50
2022-12-08T23:03:53.514Z,6.50
2022-12-08T23:06:21.039Z,6.50
2022-12-08T23:08:48.418Z,6.50
2022-12-08T23:11:15.531Z,6.50
2022-12-08T23:13:42.433Z,6.50
2022-12-08T23:16:11.238Z,6.50
2022-12-08T23:18:41.248Z,6.50
2022-12-08T23:21:11.241Z,6.40
2022-12-08T23:23:38.560Z,6.40
2022-12-08T23:26:12.359Z,6.40
2022-12-08T23:28:39.309Z,6.40
2022-12-08T23:31:09.446Z,6.40
2022-12-08T23:33:36.717Z,6.40
2022-12-08T23:36:03.917Z,6.40
2022-12-08T23:38:30.844Z,6.40
2022-12-08T23:41:02.223Z,6.40
2022-12-08T23:43:29.481Z,6.40
2022-12-08T23:45:56.481Z,6.40
2022-12-08T23:48:23.917Z,6.30
2022-12-08T23:50:51.229Z,6.30
2022-12-08T23:53:18.126Z,6.30
2022-12-08T23:55:45.065Z,6.30
2022-12-08T23:58:12.012Z,6.30
